createdAt,value
2023-05-10T00:00:56.273Z,17.89
2023-05-10T00:03:23.254Z,17.84
2023-05-10T00:05:50.333Z,17.79
2023-05-10T00:08:17.170Z,17.76
2023-05-10T00:10:44.034Z,17.75
2023-05-10T00:13:10.918Z,17.74
2023-05-10T00:15:37.921Z,17.72
2023-05-10T00:18:04.776Z,17.72
2023-05-10T00:20:31.595Z,17.70
2023-05-10T00:22:58.457Z,17.68
2023-05-10T00:25:25.363Z,17.64
2023-05-10T00:27:52.220Z,17.63
2023-05-10T00:30:19.795Z,17.61
2023-05-10T00:32:46.757Z,17.57
2023-05-10T00:35:13.885Z,17.54
2023-05-10T00:37:41.197Z,17.51
2023-05-10T00:40:08.450Z,17.49
2023-05-10T00:42:35.281Z,17.47
2023-05-10T00:45:02.280Z,17.44
2023-05-10T00:47:29.989Z,17.40
2023-05-10T00:49:57.029Z,17.38
2023-05-10T00:52:24.633Z,17.33
2023-05-10T00:54:53.467Z,17.29
2023-05-10T00:57:20.676Z,17.28
2023-05-10T00:59:47.548Z,17.26
2023-05-10T01:02:14.668Z,17.24
2023-05-10T01:04:41.711Z,17.22
2023-05-10T01:07:08.644Z,17.22
2023-05-10T01:09:35.820Z,17.23
2023-05-10T01:12:04.468Z,17.26
2023-05-10T01:14:31.653Z,17.28
2023-05-10T01:16:58.540Z,17.30
2023-05-10T01:19:29.755Z,17.30
2023-05-10T01:22:43.563Z,17.23
2023-05-10T01:25:28.332Z,17.28
2023-05-10T01:28:16.627Z,17.24
2023-05-10T01:31:22.939Z,17.26
2023-05-10T01:34:00.272Z,17.28
2023-05-10T01:36:38.315Z,17.32
2023-05-10T01:39:20.055Z,17.34
2023-05-10T01:42:08.141Z,17.36
2023-05-10T01:44:52.744Z,17.37
2023-05-10T01:47:39.975Z,17.36
2023-05-10T01:50:19.523Z,17.39
2023-05-10T01:52:55.493Z,17.42
2023-05-10T01:55:27.396Z,17.47
2023-05-10T01:58:11.271Z,17.46
2023-05-10T02:00:44.309Z,17.47
2023-05-10T02:03:12.438Z,17.50
2023-05-10T02:05:40.638Z,17.51
2023-05-10T02:08:08.852Z,17.51
2023-05-10T02:10:38.779Z,17.43
2023-05-10T02:13:07.523Z,17.50
2023-05-10T02:15:35.138Z,17.51
2023-05-10T02:18:04.632Z,17.48
2023-05-10T02:20:33.632Z,17.51
2023-05-10T02:23:01.860Z,17.53
2023-05-10T02:25:30.786Z,17.56
2023-05-10T02:27:58.696Z,17.59
2023-05-10T02:30:26.663Z,17.63
2023-05-10T02:32:54.394Z,17.68
2023-05-10T02:35:23.389Z,17.71
2023-05-10T02:37:51.495Z,17.75
2023-05-10T02:40:20.312Z,17.79
2023-05-10T02:42:49.836Z,17.84
2023-05-10T02:45:22.283Z,17.86
2023-05-10T02:47:49.691Z,17.93
2023-05-10T02:50:17.103Z,17.97
2023-05-10T02:52:49.209Z,17.97
2023-05-10T02:55:17.814Z,18.02
2023-05-10T02:57:53.286Z,18.03
2023-05-10T03:00:20.385Z,18.08
2023-05-10T03:02:47.434Z,18.10
2023-05-10T03:05:14.430Z,18.13
2023-05-10T03:07:41.632Z,18.16
2023-05-10T03:10:09.116Z,18.19
2023-05-10T03:13:14.201Z,18.14
2023-05-10T03:15:59.629Z,18.16
2023-05-10T03:18:38.249Z,18.20
2023-05-10T03:21:09.874Z,18.23
2023-05-10T03:23:49.124Z,18.23
2023-05-10T03:26:21.730Z,18.27
2023-05-10T03:28:51.997Z,18.29
2023-05-10T03:31:19.240Z,18.33
2023-05-10T03:33:53.417Z,18.30
2023-05-10T03:36:26.695Z,18.33
2023-05-10T03:38:54.275Z,18.33
2023-05-10T03:41:21.588Z,18.32
2023-05-10T03:43:48.724Z,18.31
2023-05-10T03:46:15.796Z,18.30
2023-05-10T03:48:42.753Z,18.28
2023-05-10T03:51:09.596Z,18.27
2023-05-10T03:53:36.588Z,18.22
2023-05-10T03:56:03.633Z,18.21
2023-05-10T03:58:30.413Z,18.19
2023-05-10T04:00:57.258Z,18.18
2023-05-10T04:03:24.446Z,18.17
2023-05-10T04:06:03.010Z,18.12
2023-05-10T04:08:30.147Z,18.17
2023-05-10T04:11:11.444Z,18.13
2023-05-10T04:13:38.920Z,18.19
2023-05-10T04:16:06.234Z,18.20
2023-05-10T04:18:33.491Z,18.21
2023-05-10T04:21:00.315Z,18.22
2023-05-10T04:23:28.456Z,18.22
2023-05-10T04:26:01.798Z,18.18
2023-05-10T04:28:28.828Z,18.21
2023-05-10T04:31:03.444Z,18.16
2023-05-10T04:33:30.708Z,18.19
2023-05-10T04:35:58.152Z,18.17
2023-05-10T04:38:25.527Z,18.15
2023-05-10T04:40:52.421Z,18.15
2023-05-10T04:43:19.292Z,18.16
2023-05-10T04:45:46.248Z,18.17
2023-05-10T04:48:13.375Z,18.18
2023-05-10T04:50:40.961Z,18.20
2023-05-10T04:53:08.101Z,18.21
2023-05-10T04:55:34.967Z,18.23
2023-05-10T04:58:01.765Z,18.27
2023-05-10T05:00:28.569Z,18.28
2023-05-10T05:02:55.536Z,18.32
2023-05-10T05:05:22.470Z,18.34
2023-05-10T05:07:49.283Z,18.35
2023-05-10T05:10:16.467Z,18.38
2023-05-10T05:12:43.713Z,18.40
2023-05-10T05:15:11.600Z,18.42
2023-05-10T05:17:38.531Z,18.44
2023-05-10T05:20:06.363Z,18.45
2023-05-10T05:22:33.175Z,18.43
2023-05-10T05:25:00.087Z,18.42
2023-05-10T05:27:28.704Z,18.40
2023-05-10T05:29:56.540Z,18.39
2023-05-10T05:32:24.475Z,18.37
2023-05-10T05:34:51.572Z,18.38
2023-05-10T05:37:20.618Z,18.36
2023-05-10T05:39:47.454Z,18.37
2023-05-10T05:42:15.570Z,18.38
2023-05-10T05:44:42.377Z,18.41
2023-05-10T05:47:09.402Z,18.43
2023-05-10T05:49:36.221Z,18.43
2023-05-10T05:52:04.664Z,18.44
2023-05-10T05:54:32.782Z,18.46
2023-05-10T05:57:01.518Z,18.49
2023-05-10T05:59:28.792Z,18.51
2023-05-10T06:01:55.861Z,18.53
2023-05-10T06:04:22.840Z,18.57
2023-05-10T06:06:49.745Z,18.60
2023-05-10T06:09:16.851Z,18.63
2023-05-10T06:11:43.755Z,18.66
2023-05-10T06:14:11.212Z,18.67
2023-05-10T06:16:38.056Z,18.70
2023-05-10T06:19:05.162Z,18.73
2023-05-10T06:21:32.333Z,18.75
2023-05-10T06:23:59.324Z,18.78
2023-05-10T06:26:26.320Z,18.81
2023-05-10T06:28:53.124Z,18.85
2023-05-10T06:31:19.967Z,18.88
2023-05-10T06:33:46.800Z,18.93
2023-05-10T06:36:14.186Z,18.94
2023-05-10T06:38:41.195Z,18.98
2023-05-10T06:41:08.035Z,19.01
2023-05-10T06:43:35.114Z,19.05
2023-05-10T06:46:02.078Z,19.07
2023-05-10T06:48:29.093Z,19.13
2023-05-10T06:50:55.936Z,19.16
2023-05-10T06:53:22.858Z,19.20
2023-05-10T06:55:51.978Z,19.23
2023-05-10T06:58:18.918Z,19.24
2023-05-10T07:00:46.318Z,19.26
2023-05-10T07:03:13.267Z,19.28
2023-05-10T07:05:40.166Z,19.31
2023-05-10T07:08:07.031Z,19.33
2023-05-10T07:10:34.274Z,19.37
2023-05-10T07:13:02.208Z,19.39
2023-05-10T07:15:29.472Z,19.40
2023-05-10T07:17:56.507Z,19.41
2023-05-10T07:20:23.474Z,19.41
2023-05-10T07:22:50.288Z,19.36
2023-05-10T07:25:17.397Z,19.30
2023-05-10T07:27:44.565Z,19.24
2023-05-10T07:30:12.172Z,19.20
2023-05-10T07:32:40.402Z,19.16
2023-05-10T07:35:07.793Z,19.16
2023-05-10T07:37:34.692Z,19.19
2023-05-10T07:40:01.524Z,19.20
2023-05-10T07:42:28.325Z,19.21
2023-05-10T07:44:55.104Z,19.24
2023-05-10T07:47:22.098Z,19.27
2023-05-10T07:49:48.932Z,19.31
2023-05-10T07:52:16.356Z,19.36
2023-05-10T07:54:43.256Z,19.42
2023-05-10T07:57:10.159Z,19.47
2023-05-10T07:59:37.317Z,19.53
2023-05-10T08:02:04.298Z,19.58
2023-05-10T08:04:31.201Z,19.62
2023-05-10T08:06:58.036Z,19.63
2023-05-10T08:09:25.248Z,19.60
2023-05-10T08:11:52.277Z,19.58
2023-05-10T08:14:19.182Z,19.58
2023-05-10T08:16:46.089Z,19.56
2023-05-10T08:19:12.922Z,19.54
2023-05-10T08:21:41.414Z,19.51
2023-05-10T08:24:08.372Z,19.46
2023-05-10T08:26:35.271Z,19.41
2023-05-10T08:29:02.068Z,19.34
2023-05-10T08:31:28.903Z,19.30
2023-05-10T08:33:55.882Z,19.28
2023-05-10T08:36:25.211Z,19.30
2023-05-10T08:38:53.072Z,19.33
2023-05-10T08:41:25.494Z,19.34
2023-05-10T08:43:54.188Z,19.40
2023-05-10T08:46:23.700Z,19.40
2023-05-10T08:48:52.998Z,19.37
2023-05-10T08:51:24.848Z,19.35
2023-05-10T08:53:52.274Z,19.37
2023-05-10T08:56:20.607Z,19.36
2023-05-10T08:58:49.764Z,19.38
2023-05-10T09:01:19.244Z,19.40
2023-05-10T09:03:48.623Z,19.42
2023-05-10T09:06:16.360Z,19.42
2023-05-10T09:08:43.827Z,19.43
2023-05-10T09:11:12.344Z,19.44
2023-05-10T09:13:39.279Z,19.42
2023-05-10T09:16:13.907Z,19.39
2023-05-10T09:18:48.329Z,19.34
2023-05-10T09:21:15.270Z,19.29
2023-05-10T09:23:48.710Z,19.21
2023-05-10T09:26:15.783Z,19.22
2023-05-10T09:29:01.453Z,19.16
2023-05-10T09:32:00.191Z,19.17
2023-05-10T09:34:32.827Z,19.23
2023-05-10T09:37:03.636Z,19.27
2023-05-10T09:39:36.308Z,19.31
2023-05-10T09:42:10.980Z,19.33
2023-05-10T09:44:38.963Z,19.38
2023-05-10T09:47:06.662Z,19.41
2023-05-10T09:49:34.078Z,19.45
2023-05-10T09:52:05.937Z,19.51
2023-05-10T09:54:34.445Z,19.61
2023-05-10T09:57:01.925Z,19.69
2023-05-10T09:59:30.076Z,19.71
2023-05-10T10:04:51.885Z,19.71
2023-05-10T10:07:25.668Z,19.67
2023-05-10T10:09:52.938Z,19.61
2023-05-10T10:12:21.001Z,19.47
2023-05-10T10:14:50.429Z,19.33
2023-05-10T10:17:18.229Z,19.18
2023-05-10T10:19:46.177Z,19.04
2023-05-10T10:22:13.068Z,18.93
2023-05-10T10:24:43.346Z,18.81
2023-05-10T10:27:50.405Z,18.62
2023-05-10T10:30:17.208Z,18.60
2023-05-10T10:33:27.170Z,18.48
2023-05-10T10:35:56.591Z,18.51
2023-05-10T10:38:23.745Z,18.52
2023-05-10T10:41:04.413Z,18.49
2023-05-10T10:43:31.480Z,18.57
2023-05-10T10:46:18.713Z,18.56
2023-05-10T10:49:10.114Z,18.62
2023-05-10T10:51:40.784Z,18.74
2023-05-10T10:54:11.885Z,18.76
2023-05-10T10:56:39.050Z,18.83
2023-05-10T10:59:05.972Z,18.85
2023-05-10T11:01:36.302Z,18.84
2023-05-10T11:04:06.494Z,18.88
2023-05-10T11:06:35.033Z,18.80
2023-05-10T11:09:10.083Z,18.85
2023-05-10T11:11:49.760Z,18.80
2023-05-10T11:14:23.389Z,18.76
2023-05-10T11:16:50.489Z,18.73
2023-05-10T11:19:18.752Z,18.65
2023-05-10T11:22:14.337Z,18.53
2023-05-10T11:24:41.170Z,18.61
2023-05-10T11:27:08.087Z,18.62
2023-05-10T11:29:34.888Z,18.69
2023-05-10T11:32:01.791Z,18.74
2023-05-10T11:34:35.763Z,18.81
2023-05-10T11:37:02.807Z,18.91
2023-05-10T11:39:32.154Z,18.97
2023-05-10T11:42:00.116Z,19.04
2023-05-10T11:44:34.401Z,19.08
2023-05-10T11:47:02.711Z,19.15
2023-05-10T11:49:29.621Z,19.18
2023-05-10T11:52:09.607Z,19.17
2023-05-10T11:54:36.806Z,19.12
2023-05-10T11:57:04.230Z,19.24
2023-05-10T11:59:31.317Z,19.26
2023-05-10T12:01:58.400Z,19.27
2023-05-10T12:04:25.667Z,19.30
2023-05-10T12:06:52.630Z,19.38
2023-05-10T12:09:31.521Z,19.46
2023-05-10T12:12:03.748Z,19.51
2023-05-10T12:14:35.488Z,19.56
2023-05-10T12:17:02.331Z,19.65
2023-05-10T12:19:29.208Z,19.69
2023-05-10T12:21:56.058Z,19.74
2023-05-10T12:24:22.876Z,19.77
2023-05-10T12:26:49.733Z,19.80
2023-05-10T12:29:19.482Z,19.86
2023-05-10T12:32:00.504Z,19.87
2023-05-10T12:34:36.935Z,19.91
2023-05-10T12:37:04.486Z,19.96
2023-05-10T12:39:45.528Z,19.94
2023-05-10T12:42:12.879Z,20.01
2023-05-10T12:44:40.619Z,20.04
2023-05-10T12:47:07.536Z,20.08
2023-05-10T12:49:34.827Z,20.11
2023-05-10T12:52:01.672Z,20.11
2023-05-10T12:54:28.830Z,20.10
2023-05-10T12:56:55.866Z,20.12
2023-05-10T12:59:23.617Z,20.13
2023-05-10T13:01:50.430Z,20.14
2023-05-10T13:04:17.228Z,20.16
2023-05-10T13:06:44.126Z,20.19
2023-05-10T13:09:10.969Z,20.21
2023-05-10T13:11:38.028Z,20.22
2023-05-10T13:14:04.842Z,20.20
2023-05-10T13:16:32.288Z,20.19
2023-05-10T13:18:59.434Z,20.18
2023-05-10T13:21:26.409Z,20.18
2023-05-10T13:23:53.874Z,20.18
2023-05-10T13:26:21.016Z,20.23
2023-05-10T13:28:47.964Z,20.27
2023-05-10T13:31:14.842Z,20.30
2023-05-10T13:33:41.620Z,20.28
2023-05-10T13:36:08.566Z,20.30
2023-05-10T13:38:35.456Z,20.28
2023-05-10T13:41:02.284Z,20.27
2023-05-10T13:43:30.363Z,20.27
2023-05-10T13:45:57.266Z,20.29
2023-05-10T13:48:24.080Z,20.32
2023-05-10T13:50:51.038Z,20.35
2023-05-10T13:53:17.839Z,20.34
2023-05-10T13:55:44.609Z,20.35
2023-05-10T13:58:11.635Z,20.38
2023-05-10T14:00:38.437Z,20.41
2023-05-10T14:03:06.253Z,20.45
2023-05-10T14:05:33.548Z,20.50
2023-05-10T14:08:00.357Z,20.53
2023-05-10T14:10:27.252Z,20.57
2023-05-10T14:12:54.120Z,20.62
2023-05-10T14:15:20.916Z,20.62
2023-05-10T14:17:47.760Z,20.63
2023-05-10T14:20:14.598Z,20.63
2023-05-10T14:22:41.879Z,20.63
2023-05-10T14:25:09.743Z,20.62
2023-05-10T14:27:36.521Z,20.65
2023-05-10T14:30:03.607Z,20.68
2023-05-10T14:32:30.420Z,20.73
2023-05-10T14:34:57.257Z,20.79
2023-05-10T14:37:24.073Z,20.84
2023-05-10T14:39:50.837Z,20.89
2023-05-10T14:42:17.671Z,20.90
2023-05-10T14:44:44.503Z,20.89
2023-05-10T14:47:12.308Z,20.88
2023-05-10T14:49:39.319Z,20.90
2023-05-10T14:52:06.493Z,20.92
2023-05-10T14:54:34.406Z,20.93
2023-05-10T14:57:01.581Z,20.96
2023-05-10T14:59:28.396Z,20.96
2023-05-10T15:01:55.607Z,20.98
2023-05-10T15:04:23.573Z,20.98
2023-05-10T15:06:51.172Z,20.96
2023-05-10T15:09:18.048Z,20.94
2023-05-10T15:11:45.380Z,20.92
2023-05-10T15:14:12.198Z,20.92
2023-05-10T15:16:39.063Z,20.91
2023-05-10T15:19:06.296Z,20.90
2023-05-10T15:21:39.446Z,20.87
2023-05-10T15:24:06.929Z,20.85
2023-05-10T15:26:33.916Z,20.83
2023-05-10T15:29:00.809Z,20.80
2023-05-10T15:31:28.155Z,20.80
2023-05-10T15:34:02.266Z,20.77
2023-05-10T15:36:29.093Z,20.78
2023-05-10T15:38:56.757Z,20.81
2023-05-10T15:41:24.463Z,20.88
2023-05-10T15:43:51.351Z,20.92
2023-05-10T15:46:18.186Z,20.93
2023-05-10T15:48:45.113Z,20.93
2023-05-10T15:51:12.317Z,20.91
2023-05-10T15:53:46.527Z,20.87
2023-05-10T15:56:19.965Z,20.81
2023-05-10T15:58:47.354Z,20.75
2023-05-10T16:01:14.268Z,20.70
2023-05-10T16:03:41.261Z,20.65
2023-05-10T16:06:08.127Z,20.58
2023-05-10T16:08:35.352Z,20.52
2023-05-10T16:11:02.604Z,20.46
2023-05-10T16:13:30.004Z,20.43
2023-05-10T16:15:58.073Z,20.36
2023-05-10T16:18:25.189Z,20.31
2023-05-10T16:20:53.213Z,20.27
2023-05-10T16:23:20.162Z,20.24
2023-05-10T16:25:46.994Z,20.17
2023-05-10T16:28:13.758Z,20.12
2023-05-10T16:30:40.837Z,20.09
2023-05-10T16:33:07.692Z,20.05
2023-05-10T16:35:34.568Z,20.03
2023-05-10T16:38:01.362Z,20.01
2023-05-10T16:40:28.172Z,20.02
2023-05-10T16:42:55.007Z,20.02
2023-05-10T16:45:21.857Z,20.02
2023-05-10T16:47:48.651Z,20.01
2023-05-10T16:50:15.652Z,19.99
2023-05-10T16:52:42.528Z,19.97
2023-05-10T16:55:09.578Z,19.97
2023-05-10T16:57:36.396Z,19.96
2023-05-10T17:00:04.980Z,19.95
2023-05-10T17:02:31.955Z,19.94
2023-05-10T17:04:58.814Z,19.91
2023-05-10T17:07:26.351Z,19.88
2023-05-10T17:09:53.305Z,19.83
2023-05-10T17:12:20.486Z,19.80
2023-05-10T17:14:47.523Z,19.78
2023-05-10T17:17:14.339Z,19.78
2023-05-10T17:19:44.728Z,19.77
2023-05-10T17:22:13.597Z,19.74
2023-05-10T17:24:40.635Z,19.72
2023-05-10T17:27:07.497Z,19.69
2023-05-10T17:29:34.319Z,19.67
2023-05-10T17:32:01.283Z,19.63
2023-05-10T17:34:28.227Z,19.63
2023-05-10T17:36:55.441Z,19.64
2023-05-10T17:39:22.409Z,19.65
2023-05-10T17:41:49.243Z,19.65
2023-05-10T17:44:16.194Z,19.64
2023-05-10T17:46:43.401Z,19.65
2023-05-10T17:49:10.411Z,19.65
2023-05-10T17:51:37.291Z,19.64
2023-05-10T17:54:04.298Z,19.65
2023-05-10T17:56:31.161Z,19.66
2023-05-10T17:58:57.936Z,19.65
2023-05-10T18:01:24.768Z,19.65
2023-05-10T18:03:52.739Z,19.66
2023-05-10T18:06:19.548Z,19.65
2023-05-10T18:08:46.360Z,19.65
2023-05-10T18:11:13.263Z,19.65
2023-05-10T18:13:40.161Z,19.64
2023-05-10T18:16:08.696Z,19.62
2023-05-10T18:18:35.933Z,19.60
2023-05-10T18:21:03.567Z,19.58
2023-05-10T18:23:30.389Z,19.58
2023-05-10T18:25:57.579Z,19.60
2023-05-10T18:28:24.621Z,19.59
2023-05-10T18:30:51.688Z,19.60
2023-05-10T18:33:18.777Z,19.57
2023-05-10T18:35:46.127Z,19.53
2023-05-10T18:38:13.613Z,19.50
2023-05-10T18:40:41.356Z,19.48
2023-05-10T18:43:08.845Z,19.46
2023-05-10T18:45:35.678Z,19.43
2023-05-10T18:48:02.849Z,19.41
2023-05-10T18:50:29.744Z,19.38
2023-05-10T18:52:56.576Z,19.38
2023-05-10T18:55:25.789Z,19.34
2023-05-10T18:57:52.667Z,19.33
2023-05-10T19:00:20.377Z,19.33
2023-05-10T19:02:47.672Z,19.33
2023-05-10T19:05:15.702Z,19.33
2023-05-10T19:07:43.674Z,19.32
2023-05-10T19:10:12.970Z,19.31
2023-05-10T19:12:41.713Z,19.31
2023-05-10T19:15:09.438Z,19.28
2023-05-10T19:17:38.379Z,19.25
2023-05-10T19:20:07.517Z,19.21
2023-05-10T19:22:47.178Z,19.17
2023-05-10T19:25:21.725Z,19.15
2023-05-10T19:27:48.577Z,19.12
2023-05-10T19:30:16.899Z,19.09
2023-05-10T19:32:44.177Z,19.07
2023-05-10T19:35:12.588Z,19.04
2023-05-10T19:37:40.984Z,19.02
2023-05-10T19:40:09.532Z,18.97
2023-05-10T19:42:36.332Z,18.94
2023-05-10T19:45:03.495Z,18.88
2023-05-10T19:47:31.099Z,18.85
2023-05-10T19:49:58.195Z,18.80
2023-05-10T19:52:24.992Z,18.77
2023-05-10T19:54:51.896Z,18.73
2023-05-10T19:57:18.797Z,18.70
2023-05-10T19:59:45.585Z,18.66
2023-05-10T20:02:12.408Z,18.64
2023-05-10T20:04:39.263Z,18.61
2023-05-10T20:07:09.130Z,18.53
2023-05-10T20:09:35.938Z,18.37
2023-05-10T20:12:02.704Z,18.40
2023-05-10T20:14:30.841Z,18.32
2023-05-10T20:16:57.764Z,18.29
2023-05-10T20:19:25.003Z,18.24
2023-05-10T20:21:51.819Z,18.19
2023-05-10T20:24:19.299Z,18.15
2023-05-10T20:26:46.169Z,18.11
2023-05-10T20:29:13.221Z,18.05
2023-05-10T20:31:40.131Z,18.01
2023-05-10T20:34:07.092Z,17.97
2023-05-10T20:36:33.887Z,17.91
2023-05-10T20:39:00.716Z,17.87
2023-05-10T20:41:27.533Z,17.85
2023-05-10T20:43:54.308Z,17.83
2023-05-10T20:46:21.293Z,17.81
2023-05-10T20:48:48.225Z,17.80
2023-05-10T20:51:15.031Z,17.78
2023-05-10T20:53:41.935Z,17.77
2023-05-10T20:56:08.722Z,17.74
2023-05-10T20:58:35.873Z,17.70
2023-05-10T21:01:02.868Z,17.66
2023-05-10T21:03:29.955Z,17.62
2023-05-10T21:05:56.786Z,17.60
2023-05-10T21:08:23.544Z,17.57
2023-05-10T21:10:50.438Z,17.55
2023-05-10T21:13:17.361Z,17.54
2023-05-10T21:15:44.316Z,17.51
2023-05-10T21:18:11.155Z,17.49
2023-05-10T21:20:38.010Z,17.46
2023-05-10T21:23:05.011Z,17.44
2023-05-10T21:25:31.801Z,17.40
2023-05-10T21:27:58.601Z,17.37
2023-05-10T21:30:25.680Z,17.32
2023-05-10T21:32:53.774Z,17.27
2023-05-10T21:35:20.665Z,17.19
2023-05-10T21:37:47.448Z,17.15
2023-05-10T21:40:14.349Z,17.10
2023-05-10T21:42:41.230Z,17.07
2023-05-10T21:45:08.398Z,17.01
2023-05-10T21:47:35.298Z,16.96
2023-05-10T21:50:02.143Z,16.90
2023-05-10T21:52:29.309Z,16.85
2023-05-10T21:54:56.166Z,16.80
2023-05-10T21:57:23.337Z,16.75
2023-05-10T21:59:50.182Z,16.70
2023-05-10T22:02:17.017Z,16.64
2023-05-10T22:04:43.854Z,16.60
2023-05-10T22:07:11.276Z,16.56
2023-05-10T22:09:38.143Z,16.52
2023-05-10T22:12:05.205Z,16.49
2023-05-10T22:14:32.141Z,16.46
2023-05-10T22:16:59.029Z,16.45
2023-05-10T22:19:25.924Z,16.46
2023-05-10T22:21:53.159Z,16.46
2023-05-10T22:24:19.913Z,16.47
2023-05-10T22:26:46.728Z,16.50
2023-05-10T22:29:13.525Z,16.50
2023-05-10T22:31:40.758Z,16.51
2023-05-10T22:34:07.765Z,16.53
2023-05-10T22:36:34.594Z,16.53
2023-05-10T22:39:01.602Z,16.54
2023-05-10T22:41:28.427Z,16.55
2023-05-10T22:43:55.510Z,16.57
2023-05-10T22:46:22.557Z,16.57
2023-05-10T22:48:49.579Z,16.56
2023-05-10T22:51:16.646Z,16.55
2023-05-10T22:53:43.486Z,16.55
2023-05-10T22:56:10.284Z,16.53
2023-05-10T22:58:37.163Z,16.54
2023-05-10T23:01:04.131Z,16.54
2023-05-10T23:03:31.011Z,16.51
2023-05-10T23:05:57.776Z,16.51
2023-05-10T23:08:24.596Z,16.51
2023-05-10T23:10:51.649Z,16.51
2023-05-10T23:13:20.796Z,16.51
2023-05-10T23:15:48.204Z,16.52
2023-05-10T23:18:15.458Z,16.52
2023-05-10T23:20:43.113Z,16.52
2023-05-10T23:23:10.931Z,16.53
2023-05-10T23:25:38.190Z,16.53
2023-05-10T23:28:05.348Z,16.51
2023-05-10T23:30:32.162Z,16.49
2023-05-10T23:32:59.147Z,16.49
2023-05-10T23:35:26.141Z,16.49
2023-05-10T23:37:52.918Z,16.48
2023-05-10T23:40:19.968Z,16.47
2023-05-10T23:42:46.854Z,16.45
2023-05-10T23:45:13.607Z,16.44
2023-05-10T23:47:40.496Z,16.46
2023-05-10T23:50:08.021Z,16.46
2023-05-10T23:52:34.829Z,16.48
2023-05-10T23:55:01.676Z,16.50
2023-05-10T23:57:28.689Z,16.52
2023-05-10T23:59:55.492Z,16.52
